createdAt,value
2019-04-13T00:01:52.997Z,7.67
2019-04-13T00:04:29.716Z,7.20
2019-04-13T00:06:56.344Z,8.07
2019-04-13T00:09:24.210Z,8.27
2019-04-13T00:12:10.768Z,8.43
2019-04-13T00:14:38.412Z,9.17
2019-04-13T00:17:07.219Z,11.80
2019-04-13T00:19:34.970Z,8.13
2019-04-13T00:22:02.784Z,8.07
2019-04-13T00:24:32.546Z,9.40
2019-04-13T00:27:00.191Z,8.30
2019-04-13T00:29:28.185Z,11.10
2019-04-13T00:31:56.207Z,10.73
2019-04-13T00:34:24.072Z,8.03
2019-04-13T00:36:51.773Z,8.50
2019-04-13T00:39:21.508Z,9.80
2019-04-13T00:41:49.246Z,9.00
2019-04-13T00:44:17.171Z,9.73
2019-04-13T00:46:45.188Z,11.50
2019-04-13T00:49:13.363Z,10.87
2019-04-13T00:51:41.909Z,9.83
2019-04-13T00:54:14.314Z,9.27
2019-04-13T00:56:42.702Z,13.10
2019-04-13T00:59:10.039Z,13.50
2019-04-13T01:01:37.659Z,10.87
2019-04-13T01:04:05.373Z,9.30
2019-04-13T01:06:33.416Z,10.43
2019-04-13T01:09:01.101Z,9.27
2019-04-13T01:11:29.220Z,11.87
2019-04-13T01:13:57.230Z,10.47
2019-04-13T01:16:25.299Z,14.83
2019-04-13T01:18:53.426Z,11.30
2019-04-13T01:21:20.945Z,9.43
2019-04-13T01:23:48.907Z,10.73
2019-04-13T01:26:16.853Z,10.40
2019-04-13T01:28:44.959Z,9.63
2019-04-13T01:31:12.689Z,8.37
2019-04-13T01:33:40.677Z,9.10
2019-04-13T01:36:08.117Z,9.33
2019-04-13T01:38:36.111Z,9.30
2019-04-13T01:41:03.786Z,9.50
2019-04-13T01:43:31.751Z,25.43
2019-04-13T01:46:00.416Z,9.77
2019-04-13T01:48:28.217Z,9.67
2019-04-13T01:50:56.278Z,11.20
2019-04-13T01:53:24.017Z,11.10
2019-04-13T01:55:52.194Z,15.73
2019-04-13T01:58:21.246Z,8.00
2019-04-13T02:01:12.112Z,9.23
2019-04-13T02:03:43.879Z,8.17
2019-04-13T02:06:11.944Z,10.07
2019-04-13T02:08:50.802Z,12.37
2019-04-13T02:11:24.638Z,10.33
2019-04-13T02:13:52.755Z,8.70
2019-04-13T02:16:21.146Z,9.17
2019-04-13T02:18:49.353Z,8.87
2019-04-13T02:21:17.886Z,11.40
2019-04-13T02:23:45.877Z,8.73
2019-04-13T02:26:13.767Z,10.07
2019-04-13T02:28:41.381Z,13.57
2019-04-13T02:31:09.230Z,12.80
2019-04-13T02:33:36.902Z,10.80
2019-04-13T02:36:04.671Z,12.10
2019-04-13T02:38:32.544Z,10.77
2019-04-13T02:41:00.412Z,11.13
2019-04-13T02:43:27.863Z,11.00
2019-04-13T02:45:56.037Z,11.30
2019-04-13T02:48:23.659Z,10.13
2019-04-13T02:50:51.394Z,9.00
2019-04-13T02:53:19.140Z,12.23
2019-04-13T02:55:46.668Z,8.03
2019-04-13T02:58:14.965Z,10.53
2019-04-13T03:00:42.559Z,9.50
2019-04-13T03:03:10.178Z,9.97
2019-04-13T03:05:46.777Z,9.73
2019-04-13T03:08:07.227Z,8.90
2019-04-13T03:10:35.223Z,9.40
2019-04-13T03:13:02.649Z,7.50
2019-04-13T03:15:58.819Z,9.10
2019-04-13T03:18:31.564Z,7.93
2019-04-13T03:20:59.519Z,12.23
2019-04-13T03:23:28.592Z,11.73
2019-04-13T03:25:56.121Z,12.63
2019-04-13T03:28:24.176Z,10.23
2019-04-13T03:30:51.518Z,9.40
2019-04-13T03:33:19.168Z,10.20
2019-04-13T03:35:58.496Z,12.50
2019-04-13T03:38:16.780Z,9.70
2019-04-13T03:40:44.714Z,9.27
2019-04-13T03:43:12.789Z,11.30
2019-04-13T03:45:40.721Z,9.43
2019-04-13T03:48:08.137Z,9.13
2019-04-13T03:50:36.015Z,11.77
2019-04-13T03:53:03.609Z,12.63
2019-04-13T03:55:31.324Z,9.60
2019-04-13T03:57:59.447Z,11.03
2019-04-13T04:00:27.003Z,12.77
2019-04-13T04:02:54.514Z,9.80
2019-04-13T04:05:22.120Z,10.03
2019-04-13T04:07:49.691Z,10.20
2019-04-13T04:10:17.323Z,11.80
2019-04-13T04:12:45.160Z,11.30
2019-04-13T04:15:12.928Z,10.20
2019-04-13T04:17:40.699Z,12.80
2019-04-13T04:20:09.072Z,13.47
2019-04-13T04:22:36.947Z,14.30
2019-04-13T04:25:04.561Z,12.27
2019-04-13T04:27:32.603Z,13.40
2019-04-13T04:30:01.063Z,9.10
2019-04-13T04:32:28.828Z,11.27
2019-04-13T04:34:56.782Z,11.80
2019-04-13T04:37:24.942Z,11.93
2019-04-13T04:39:53.331Z,10.07
2019-04-13T04:42:21.829Z,10.10
2019-04-13T04:44:49.591Z,10.87
2019-04-13T04:47:17.520Z,11.17
2019-04-13T04:49:46.201Z,10.83
2019-04-13T04:52:14.242Z,11.73
2019-04-13T04:54:41.906Z,10.10
2019-04-13T04:57:09.573Z,13.33
2019-04-13T04:59:37.231Z,11.73
2019-04-13T05:02:05.065Z,11.07
2019-04-13T05:04:33.336Z,14.40
2019-04-13T05:07:01.617Z,13.27
2019-04-13T05:09:29.795Z,15.60
2019-04-13T05:11:58.052Z,13.17
2019-04-13T05:14:26.123Z,12.17
2019-04-13T05:16:55.033Z,54.13
2019-04-13T05:19:23.016Z,42.23
2019-04-13T05:21:51.754Z,14.23
2019-04-13T05:24:19.478Z,16.50
2019-04-13T05:26:47.103Z,15.60
2019-04-13T05:29:15.318Z,15.00
2019-04-13T05:31:42.838Z,15.80
2019-04-13T05:34:11.205Z,13.60
2019-04-13T05:36:47.666Z,14.30
2019-04-13T05:39:09.118Z,11.27
2019-04-13T05:41:37.286Z,15.43
2019-04-13T05:44:05.216Z,12.10
2019-04-13T05:46:33.110Z,27.27
2019-04-13T05:49:01.076Z,65.17
2019-04-13T05:51:28.738Z,31.33
2019-04-13T05:53:56.260Z,13.40
2019-04-13T05:56:25.142Z,14.40
2019-04-13T05:59:02.659Z,15.00
2019-04-13T06:01:23.424Z,11.43
2019-04-13T06:03:52.999Z,11.87
2019-04-13T06:06:21.261Z,12.87
2019-04-13T06:08:48.925Z,12.40
2019-04-13T06:11:16.681Z,13.97
2019-04-13T06:13:44.518Z,13.70
2019-04-13T06:16:11.987Z,14.57
2019-04-13T06:18:39.777Z,14.20
2019-04-13T06:21:08.463Z,15.43
2019-04-13T06:23:36.240Z,13.77
2019-04-13T06:26:07.296Z,13.80
2019-04-13T06:28:34.988Z,15.30
2019-04-13T06:31:14.035Z,19.60
2019-04-13T06:33:49.804Z,14.10
2019-04-13T06:36:18.482Z,15.20
2019-04-13T06:38:47.007Z,13.40
2019-04-13T06:41:14.943Z,28.77
2019-04-13T06:43:42.367Z,40.67
2019-04-13T06:46:09.943Z,21.33
2019-04-13T06:48:37.833Z,15.07
2019-04-13T06:51:05.777Z,20.00
2019-04-13T06:53:33.369Z,17.60
2019-04-13T06:56:03.128Z,15.23
2019-04-13T06:58:31.438Z,15.50
2019-04-13T07:00:59.160Z,15.13
2019-04-13T07:03:29.809Z,15.30
2019-04-13T07:05:57.591Z,17.37
2019-04-13T07:08:38.486Z,13.90
2019-04-13T07:11:24.040Z,16.70
2019-04-13T07:14:00.799Z,20.37
2019-04-13T07:16:43.983Z,19.07
2019-04-13T07:19:11.646Z,19.37
2019-04-13T07:21:38.879Z,16.30
2019-04-13T07:24:06.305Z,21.47
2019-04-13T07:26:33.891Z,13.87
2019-04-13T07:29:01.345Z,21.10
2019-04-13T07:31:31.397Z,15.90
2019-04-13T07:33:58.511Z,15.13
2019-04-13T07:36:26.321Z,14.10
2019-04-13T07:38:54.273Z,15.33
2019-04-13T07:41:22.944Z,17.53
2019-04-13T07:43:50.786Z,16.37
2019-04-13T07:46:44.045Z,14.43
2019-04-13T07:49:33.954Z,16.37
2019-04-13T07:52:14.563Z,18.07
2019-04-13T07:54:45.183Z,14.77
2019-04-13T07:57:12.084Z,18.57
2019-04-13T07:59:39.255Z,18.83
2019-04-13T08:02:07.019Z,13.47
2019-04-13T08:04:37.478Z,14.30
2019-04-13T08:07:06.496Z,39.23
2019-04-13T08:09:34.371Z,56.30
2019-04-13T08:12:02.357Z,15.90
2019-04-13T08:14:31.753Z,14.50
2019-04-13T08:17:00.983Z,16.63
2019-04-13T08:19:32.469Z,11.33
2019-04-13T08:22:01.883Z,11.50
2019-04-13T08:24:30.177Z,13.80
2019-04-13T08:26:57.644Z,15.70
2019-04-13T08:29:25.050Z,10.37
2019-04-13T08:31:55.712Z,9.67
2019-04-13T08:34:23.390Z,10.03
2019-04-13T08:36:51.017Z,9.97
2019-04-13T08:39:18.878Z,9.03
2019-04-13T08:41:46.489Z,8.30
2019-04-13T08:44:14.218Z,7.53
2019-04-13T08:46:42.245Z,7.73
2019-04-13T08:49:09.781Z,8.93
2019-04-13T08:51:37.935Z,21.83
2019-04-13T08:54:06.000Z,35.63
2019-04-13T08:56:34.467Z,12.50
2019-04-13T08:59:02.092Z,7.07
2019-04-13T09:01:30.422Z,8.87
2019-04-13T09:03:58.097Z,9.90
2019-04-13T09:06:25.763Z,9.37
2019-04-13T09:08:53.387Z,9.10
2019-04-13T09:11:20.899Z,7.83
2019-04-13T09:13:49.773Z,9.93
2019-04-13T09:16:18.386Z,9.50
2019-04-13T09:19:12.410Z,11.30
2019-04-13T09:21:49.917Z,9.30
2019-04-13T09:24:14.239Z,9.40
2019-04-13T09:26:41.999Z,9.50
2019-04-13T09:29:14.452Z,8.80
2019-04-13T09:31:40.285Z,8.40
2019-04-13T09:34:19.028Z,7.93
2019-04-13T09:36:37.761Z,9.10
2019-04-13T09:39:06.321Z,11.30
2019-04-13T09:41:36.328Z,10.33
2019-04-13T09:44:16.915Z,10.30
2019-04-13T09:46:45.229Z,11.80
2019-04-13T09:49:13.161Z,13.03
2019-04-13T09:51:41.049Z,13.50
2019-04-13T09:54:08.760Z,10.87
2019-04-13T09:56:37.478Z,9.90
2019-04-13T09:59:05.955Z,12.83
2019-04-13T10:01:33.760Z,22.57
2019-04-13T10:04:01.088Z,14.03
2019-04-13T10:06:29.632Z,9.27
2019-04-13T10:08:58.040Z,9.07
2019-04-13T10:11:31.614Z,12.80
2019-04-13T10:14:06.427Z,10.70
2019-04-13T10:16:46.866Z,11.43
2019-04-13T10:19:14.336Z,8.77
2019-04-13T10:21:41.817Z,9.93
2019-04-13T10:24:09.525Z,9.03
2019-04-13T10:26:37.525Z,9.27
2019-04-13T10:29:07.807Z,8.40
2019-04-13T10:31:35.657Z,7.27
2019-04-13T10:34:03.935Z,10.70
2019-04-13T10:36:32.159Z,10.07
2019-04-13T10:39:08.412Z,11.50
2019-04-13T10:41:29.987Z,7.43
2019-04-13T10:43:59.764Z,24.30
2019-04-13T10:47:02.930Z,36.03
2019-04-13T10:49:44.553Z,11.23
2019-04-13T10:52:20.768Z,8.00
2019-04-13T10:54:47.864Z,11.70
2019-04-13T10:57:15.958Z,9.50
2019-04-13T10:59:43.734Z,8.83
2019-04-13T11:02:21.652Z,13.30
2019-04-13T11:04:41.642Z,9.60
2019-04-13T11:07:09.292Z,10.60
2019-04-13T11:09:37.380Z,12.40
2019-04-13T11:12:05.277Z,11.50
2019-04-13T11:14:33.413Z,11.10
2019-04-13T11:17:01.573Z,12.53
2019-04-13T11:19:30.476Z,12.43
2019-04-13T11:21:58.641Z,12.43
2019-04-13T11:24:26.531Z,12.67
2019-04-13T11:26:54.559Z,11.70
2019-04-13T11:29:22.152Z,12.30
2019-04-13T11:31:54.741Z,14.80
2019-04-13T11:34:19.981Z,9.40
2019-04-13T11:36:48.206Z,9.80
2019-04-13T11:39:16.025Z,11.07
2019-04-13T11:41:56.394Z,9.90
2019-04-13T11:44:52.742Z,9.40
2019-04-13T11:47:28.797Z,7.70
2019-04-13T11:49:57.711Z,5.87
2019-04-13T11:52:25.513Z,5.77
2019-04-13T11:54:53.502Z,5.80
2019-04-13T11:57:21.792Z,7.47
2019-04-13T11:59:49.705Z,5.83
2019-04-13T12:02:51.727Z,8.80
2019-04-13T12:05:31.860Z,8.67
2019-04-13T12:08:04.219Z,6.70
2019-04-13T12:11:10.027Z,9.17
2019-04-13T12:13:51.349Z,8.10
2019-04-13T12:16:30.689Z,9.87
2019-04-13T12:19:06.916Z,7.93
2019-04-13T12:21:44.298Z,8.17
2019-04-13T12:24:16.023Z,10.00
2019-04-13T12:26:45.963Z,12.30
2019-04-13T12:29:13.667Z,17.67
2019-04-13T12:31:41.782Z,14.60
2019-04-13T12:34:09.813Z,8.17
2019-04-13T12:36:37.453Z,6.10
2019-04-13T12:39:07.674Z,6.40
2019-04-13T12:41:40.647Z,6.60
2019-04-13T12:44:08.171Z,8.43
2019-04-13T12:46:36.192Z,7.80
2019-04-13T12:49:04.017Z,4.20
2019-04-13T12:51:31.699Z,6.60
2019-04-13T12:54:04.355Z,5.40
2019-04-13T12:56:30.462Z,6.10
2019-04-13T12:58:58.353Z,5.90
2019-04-13T13:01:34.423Z,5.80
2019-04-13T13:04:05.184Z,4.60
2019-04-13T13:06:33.185Z,7.50
2019-04-13T13:09:01.591Z,3.83
2019-04-13T13:11:29.712Z,2.90
2019-04-13T13:13:57.620Z,3.57
2019-04-13T13:16:25.270Z,3.23
2019-04-13T13:18:53.277Z,5.40
2019-04-13T13:21:20.879Z,3.70
2019-04-13T13:23:51.650Z,4.57
2019-04-13T13:26:21.682Z,4.00
2019-04-13T13:28:49.911Z,4.20
2019-04-13T13:31:18.361Z,4.43
2019-04-13T13:33:46.340Z,4.40
2019-04-13T13:36:14.615Z,4.83
2019-04-13T13:38:42.505Z,5.47
2019-04-13T13:41:10.139Z,7.00
2019-04-13T13:43:38.280Z,5.23
2019-04-13T13:46:07.324Z,4.97
2019-04-13T13:48:35.012Z,5.33
2019-04-13T13:51:03.312Z,5.40
2019-04-13T13:53:31.145Z,6.40
2019-04-13T13:55:59.774Z,6.90
2019-04-13T13:58:42.140Z,11.30
2019-04-13T14:01:15.744Z,9.13
2019-04-13T14:03:43.971Z,13.37
2019-04-13T14:06:12.636Z,8.83
2019-04-13T14:08:44.230Z,19.53
2019-04-13T14:11:10.777Z,14.60
2019-04-13T14:13:38.756Z,8.67
2019-04-13T14:16:06.615Z,7.87
2019-04-13T14:18:34.681Z,8.53
2019-04-13T14:21:04.311Z,6.70
2019-04-13T14:23:32.033Z,7.30
2019-04-13T14:25:59.916Z,7.83
2019-04-13T14:28:27.501Z,5.60
2019-04-13T14:30:55.465Z,5.30
2019-04-13T14:33:23.690Z,16.93
2019-04-13T14:35:51.586Z,4.50
2019-04-13T14:38:22.786Z,4.30
2019-04-13T14:40:55.616Z,4.70
2019-04-13T14:43:37.408Z,5.10
2019-04-13T14:46:08.677Z,5.83
2019-04-13T14:48:36.533Z,6.47
2019-04-13T14:51:04.441Z,6.33
2019-04-13T14:53:33.147Z,7.37
2019-04-13T14:56:05.038Z,5.90
2019-04-13T14:58:33.195Z,5.37
2019-04-13T15:01:01.080Z,8.27
2019-04-13T15:03:29.030Z,5.43
2019-04-13T15:05:58.121Z,5.30
2019-04-13T15:08:26.713Z,7.33
2019-04-13T15:10:57.928Z,8.30
2019-04-13T15:13:25.343Z,7.20
2019-04-13T15:15:54.594Z,7.00
2019-04-13T15:18:41.499Z,8.67
2019-04-13T15:21:11.059Z,6.30
2019-04-13T15:23:42.552Z,5.87
2019-04-13T15:26:10.251Z,9.53
2019-04-13T15:28:39.568Z,5.70
2019-04-13T15:31:09.748Z,21.57
2019-04-13T15:33:37.366Z,50.33
2019-04-13T15:36:06.852Z,18.53
2019-04-13T15:38:35.280Z,7.23
2019-04-13T15:41:05.710Z,5.87
2019-04-13T15:43:35.013Z,6.10
2019-04-13T15:46:02.779Z,5.17
2019-04-13T15:48:30.771Z,4.80
2019-04-13T15:50:59.572Z,5.20
2019-04-13T15:53:27.462Z,5.07
2019-04-13T15:55:56.724Z,6.90
2019-04-13T15:58:25.065Z,6.00
2019-04-13T16:00:52.907Z,6.30
2019-04-13T16:03:21.652Z,8.93
2019-04-13T16:05:49.668Z,7.33
2019-04-13T16:08:17.956Z,6.30
2019-04-13T16:11:23.811Z,6.87
2019-04-13T16:13:52.150Z,5.27
2019-04-13T16:16:20.011Z,5.50
2019-04-13T16:18:48.391Z,5.23
2019-04-13T16:21:16.041Z,5.00
2019-04-13T16:23:46.731Z,4.87
2019-04-13T16:26:13.641Z,4.50
2019-04-13T16:29:01.225Z,5.40
2019-04-13T16:31:55.237Z,4.63
2019-04-13T16:34:49.168Z,5.93
2019-04-13T16:37:25.635Z,4.73
2019-04-13T16:39:53.617Z,5.60
2019-04-13T16:42:25.879Z,5.87
2019-04-13T16:45:04.745Z,4.63
2019-04-13T16:47:39.910Z,6.33
2019-04-13T16:50:32.787Z,8.27
2019-04-13T16:53:20.187Z,8.20
2019-04-13T16:55:53.755Z,7.10
2019-04-13T16:58:30.024Z,22.27
2019-04-13T17:01:12.382Z,36.50
2019-04-13T17:03:59.492Z,18.43
2019-04-13T17:06:28.682Z,9.40
2019-04-13T17:08:57.721Z,9.07
2019-04-13T17:11:25.815Z,7.13
2019-04-13T17:13:53.669Z,6.57
2019-04-13T17:16:21.699Z,7.30
2019-04-13T17:19:05.502Z,7.67
2019-04-13T17:21:41.725Z,12.20
2019-04-13T17:24:30.259Z,22.43
2019-04-13T17:27:27.991Z,19.00
2019-04-13T17:30:21.849Z,11.03
2019-04-13T17:33:08.398Z,11.40
2019-04-13T17:35:36.650Z,8.83
2019-04-13T17:38:05.303Z,9.13
2019-04-13T17:40:40.522Z,10.03
2019-04-13T17:43:45.261Z,8.57
2019-04-13T17:46:24.201Z,7.23
2019-04-13T17:49:11.297Z,9.90
2019-04-13T17:52:02.705Z,10.67
2019-04-13T17:54:40.106Z,9.73
2019-04-13T17:57:10.043Z,9.63
2019-04-13T18:00:15.931Z,14.30
2019-04-13T18:03:08.050Z,11.80
2019-04-13T18:05:43.573Z,29.60
2019-04-13T18:08:39.655Z,11.73
2019-04-13T18:11:26.061Z,13.20
2019-04-13T18:14:06.783Z,26.83
2019-04-13T18:16:46.595Z,11.40
2019-04-13T18:19:17.039Z,13.33
2019-04-13T18:21:45.561Z,10.50
2019-04-13T18:24:14.036Z,9.27
2019-04-13T18:26:42.008Z,11.03
2019-04-13T18:29:10.465Z,13.27
2019-04-13T18:31:38.471Z,11.03
2019-04-13T18:34:06.431Z,10.83
2019-04-13T18:36:34.579Z,12.37
2019-04-13T18:39:06.838Z,10.10
2019-04-13T18:41:35.172Z,11.30
2019-04-13T18:44:03.360Z,13.30
2019-04-13T18:46:31.881Z,12.33
2019-04-13T18:48:59.551Z,12.87
2019-04-13T18:51:29.111Z,11.17
2019-04-13T18:53:57.296Z,12.10
2019-04-13T18:56:25.370Z,13.23
2019-04-13T18:58:54.432Z,11.17
2019-04-13T19:01:23.738Z,11.47
2019-04-13T19:03:52.265Z,12.33
2019-04-13T19:06:27.082Z,10.97
2019-04-13T19:08:49.136Z,12.43
2019-04-13T19:11:16.574Z,13.13
2019-04-13T19:13:44.409Z,13.77
2019-04-13T19:16:12.486Z,14.47
2019-04-13T19:18:40.387Z,17.70
2019-04-13T19:21:08.268Z,14.37
2019-04-13T19:23:36.609Z,12.97
2019-04-13T19:26:06.082Z,12.60
2019-04-13T19:28:33.661Z,14.03
2019-04-13T19:31:01.626Z,14.67
2019-04-13T19:33:29.539Z,14.90
2019-04-13T19:35:57.196Z,15.33
2019-04-13T19:38:24.969Z,13.60
2019-04-13T19:40:53.478Z,17.93
2019-04-13T19:43:21.293Z,14.90
2019-04-13T19:45:49.055Z,16.73
2019-04-13T19:48:17.437Z,17.20
2019-04-13T19:50:46.902Z,18.77
2019-04-13T19:53:40.044Z,14.10
2019-04-13T19:56:10.790Z,17.70
2019-04-13T19:58:38.484Z,15.33
2019-04-13T20:01:06.386Z,17.80
2019-04-13T20:03:34.676Z,16.57
2019-04-13T20:06:08.395Z,16.10
2019-04-13T20:08:33.962Z,15.77
2019-04-13T20:11:01.514Z,17.30
2019-04-13T20:13:40.825Z,16.73
2019-04-13T20:15:59.674Z,18.20
2019-04-13T20:18:28.310Z,17.37
2019-04-13T20:20:56.438Z,29.13
2019-04-13T20:23:24.249Z,17.43
2019-04-13T20:25:52.732Z,17.90
2019-04-13T20:28:22.148Z,18.20
2019-04-13T20:30:53.468Z,18.30
2019-04-13T20:33:20.029Z,16.90
2019-04-13T20:35:56.822Z,19.27
2019-04-13T20:38:19.310Z,18.97
2019-04-13T20:41:17.126Z,16.83
2019-04-13T20:43:56.972Z,16.90
2019-04-13T20:46:16.814Z,18.07
2019-04-13T20:48:44.814Z,20.80
2019-04-13T20:51:12.882Z,20.90
2019-04-13T20:53:40.735Z,21.43
2019-04-13T20:56:09.801Z,18.37
2019-04-13T20:58:37.990Z,20.63
2019-04-13T21:01:06.478Z,19.33
2019-04-13T21:03:33.853Z,20.70
2019-04-13T21:06:02.499Z,19.30
2019-04-13T21:08:30.326Z,18.00
2019-04-13T21:10:58.527Z,18.80
2019-04-13T21:13:25.927Z,17.03
2019-04-13T21:15:55.335Z,13.20
2019-04-13T21:18:23.677Z,17.43
2019-04-13T21:20:51.602Z,17.03
2019-04-13T21:23:19.439Z,18.17
2019-04-13T21:25:46.991Z,16.40
2019-04-13T21:28:14.911Z,18.70
2019-04-13T21:30:42.559Z,19.03
2019-04-13T21:33:10.491Z,20.33
2019-04-13T21:35:38.164Z,18.70
2019-04-13T21:38:06.291Z,17.83
2019-04-13T21:40:34.097Z,17.63
2019-04-13T21:43:04.142Z,18.87
2019-04-13T21:45:32.297Z,21.30
2019-04-13T21:48:00.134Z,18.03
2019-04-13T21:50:36.995Z,20.07
2019-04-13T21:53:09.830Z,21.60
2019-04-13T21:55:39.819Z,19.47
2019-04-13T21:58:08.009Z,19.97
2019-04-13T22:01:03.924Z,21.20
2019-04-13T22:03:32.011Z,22.00
2019-04-13T22:06:00.099Z,20.67
2019-04-13T22:08:27.924Z,23.60
2019-04-13T22:10:55.358Z,22.03
2019-04-13T22:13:23.425Z,20.97
2019-04-13T22:15:50.867Z,22.43
2019-04-13T22:18:19.329Z,21.77
2019-04-13T22:20:48.952Z,23.60
2019-04-13T22:23:17.120Z,22.53
2019-04-13T22:25:44.969Z,22.47
2019-04-13T22:28:16.204Z,19.30
2019-04-13T22:31:03.384Z,23.30
2019-04-13T22:33:32.739Z,20.03
2019-04-13T22:36:05.495Z,18.47
2019-04-13T22:38:34.423Z,22.10
2019-04-13T22:41:02.700Z,19.63
2019-04-13T22:43:30.570Z,19.50
2019-04-13T22:45:57.906Z,19.43
2019-04-13T22:48:48.552Z,21.80
2019-04-13T22:51:34.386Z,21.90
2019-04-13T22:54:30.365Z,23.30
2019-04-13T22:57:06.177Z,23.37
2019-04-13T22:59:33.618Z,24.13
2019-04-13T23:02:19.161Z,21.33
2019-04-13T23:04:47.236Z,22.70
2019-04-13T23:07:15.545Z,19.80
2019-04-13T23:09:43.188Z,18.90
2019-04-13T23:12:11.403Z,20.20
2019-04-13T23:14:51.574Z,18.03
2019-04-13T23:17:09.218Z,22.47
2019-04-13T23:19:37.169Z,22.10
2019-04-13T23:22:08.333Z,20.40
2019-04-13T23:24:36.405Z,22.00
2019-04-13T23:27:05.613Z,20.37
2019-04-13T23:29:34.591Z,22.10
2019-04-13T23:32:03.016Z,19.33
2019-04-13T23:34:31.151Z,18.90
2019-04-13T23:36:59.466Z,19.37
2019-04-13T23:39:28.123Z,21.03
2019-04-13T23:41:56.178Z,21.87
2019-04-13T23:44:24.530Z,17.93
2019-04-13T23:46:52.557Z,16.80
2019-04-13T23:49:20.968Z,18.50
2019-04-13T23:51:49.275Z,15.87
2019-04-13T23:54:17.532Z,19.53
2019-04-13T23:56:52.452Z,17.60
2019-04-13T23:59:32.881Z,17.10
